sensor_id;sensor_type;location;lat;lon;timestamp;P1;durP1;ratioP1;P2;durP2;ratioP2
17422;SDS011;8829;47.932;7.810;2022-11-11T00:00:14;1.10;;;1.10;;
17422;SDS011;8829;47.932;7.810;2022-11-11T00:02:43;2.67;;;1.43;;
17422;SDS011;8829;47.932;7.810;2022-11-11T00:05:10;1.77;;;1.33;;
17422;SDS011;8829;47.932;7.810;2022-11-11T00:07:36;2.87;;;1.43;;
17422;SDS011;8829;47.932;7.810;2022-11-11T00:10:04;2.77;;;1.17;;
17422;SDS011;8829;47.932;7.810;2022-11-11T00:12:31;3.17;;;1.80;;
17422;SDS011;8829;47.932;7.810;2022-11-11T00:14:58;6.53;;;1.30;;
17422;SDS011;8829;47.932;7.810;2022-11-11T00:17:25;2.30;;;1.33;;
17422;SDS011;8829;47.932;7.810;2022-11-11T00:20:11;2.83;;;1.80;;
17422;SDS011;8829;47.932;7.810;2022-11-11T00:22:55;3.93;;;1.43;;
17422;SDS011;8829;47.932;7.810;2022-11-11T00:25:40;3.37;;;1.67;;
17422;SDS011;8829;47.932;7.810;2022-11-11T00:28:06;1.80;;;1.43;;
17422;SDS011;8829;47.932;7.810;2022-11-11T00:30:33;4.70;;;2.17;;
17422;SDS011;8829;47.932;7.810;2022-11-11T00:33:00;4.30;;;1.73;;
17422;SDS011;8829;47.932;7.810;2022-11-11T00:35:29;1.50;;;1.40;;
17422;SDS011;8829;47.932;7.810;2022-11-11T00:38:13;1.60;;;1.37;;
17422;SDS011;8829;47.932;7.810;2022-11-11T00:41:01;2.30;;;1.10;;
17422;SDS011;8829;47.932;7.810;2022-11-11T00:43:28;3.63;;;1.20;;
17422;SDS011;8829;47.932;7.810;2022-11-11T00:45:55;4.07;;;1.93;;
17422;SDS011;8829;47.932;7.810;2022-11-11T00:48:41;4.10;;;1.73;;
17422;SDS011;8829;47.932;7.810;2022-11-11T00:51:27;5.67;;;2.00;;
17422;SDS011;8829;47.932;7.810;2022-11-11T00:53:54;2.10;;;1.50;;
17422;SDS011;8829;47.932;7.810;2022-11-11T00:56:21;1.57;;;1.33;;
17422;SDS011;8829;47.932;7.810;2022-11-11T00:58:48;1.90;;;1.63;;
17422;SDS011;8829;47.932;7.810;2022-11-11T01:01:15;1.70;;;1.33;;
17422;SDS011;8829;47.932;7.810;2022-11-11T01:03:42;4.23;;;1.20;;
17422;SDS011;8829;47.932;7.810;2022-11-11T01:06:10;3.93;;;1.07;;
17422;SDS011;8829;47.932;7.810;2022-11-11T01:08:39;5.70;;;1.47;;
17422;SDS011;8829;47.932;7.810;2022-11-11T01:11:17;3.30;;;1.60;;
17422;SDS011;8829;47.932;7.810;2022-11-11T01:13:46;1.23;;;1.13;;
17422;SDS011;8829;47.932;7.810;2022-11-11T01:16:13;1.97;;;1.30;;
17422;SDS011;8829;47.932;7.810;2022-11-11T01:18:42;8.43;;;2.27;;
17422;SDS011;8829;47.932;7.810;2022-11-11T01:21:10;3.47;;;1.73;;
17422;SDS011;8829;47.932;7.810;2022-11-11T01:23:40;1.30;;;1.20;;
17422;SDS011;8829;47.932;7.810;2022-11-11T01:26:10;4.27;;;1.57;;
17422;SDS011;8829;47.932;7.810;2022-11-11T01:28:39;2.37;;;1.47;;
17422;SDS011;8829;47.932;7.810;2022-11-11T01:31:08;1.60;;;1.50;;
17422;SDS011;8829;47.932;7.810;2022-11-11T01:33:37;3.43;;;1.50;;
17422;SDS011;8829;47.932;7.810;2022-11-11T01:36:05;4.53;;;2.03;;
17422;SDS011;8829;47.932;7.810;2022-11-11T01:38:33;2.27;;;1.67;;
17422;SDS011;8829;47.932;7.810;2022-11-11T01:41:02;2.13;;;1.93;;
17422;SDS011;8829;47.932;7.810;2022-11-11T01:43:51;3.57;;;1.40;;
17422;SDS011;8829;47.932;7.810;2022-11-11T01:46:20;3.33;;;1.93;;
17422;SDS011;8829;47.932;7.810;2022-11-11T01:48:53;3.73;;;1.70;;
17422;SDS011;8829;47.932;7.810;2022-11-11T01:51:43;4.43;;;1.90;;
17422;SDS011;8829;47.932;7.810;2022-11-11T01:54:15;1.90;;;1.63;;
17422;SDS011;8829;47.932;7.810;2022-11-11T01:56:50;2.47;;;1.97;;
17422;SDS011;8829;47.932;7.810;2022-11-11T01:59:20;5.10;;;2.37;;
17422;SDS011;8829;47.932;7.810;2022-11-11T02:01:48;3.43;;;2.17;;
17422;SDS011;8829;47.932;7.810;2022-11-11T02:04:15;5.00;;;2.13;;
17422;SDS011;8829;47.932;7.810;2022-11-11T02:07:03;2.57;;;2.20;;
17422;SDS011;8829;47.932;7.810;2022-11-11T02:09:33;2.40;;;1.93;;
17422;SDS011;8829;47.932;7.810;2022-11-11T02:12:07;2.07;;;1.80;;
17422;SDS011;8829;47.932;7.810;2022-11-11T02:14:53;4.60;;;2.20;;
17422;SDS011;8829;47.932;7.810;2022-11-11T02:17:22;10.37;;;2.70;;
17422;SDS011;8829;47.932;7.810;2022-11-11T02:19:52;2.43;;;2.23;;
17422;SDS011;8829;47.932;7.810;2022-11-11T02:22:22;3.77;;;2.47;;
17422;SDS011;8829;47.932;7.810;2022-11-11T02:24:57;5.20;;;2.37;;
17422;SDS011;8829;47.932;7.810;2022-11-11T02:27:25;3.03;;;2.00;;
17422;SDS011;8829;47.932;7.810;2022-11-11T02:29:55;4.37;;;2.50;;
17422;SDS011;8829;47.932;7.810;2022-11-11T02:32:23;2.67;;;2.47;;
17422;SDS011;8829;47.932;7.810;2022-11-11T02:34:50;6.20;;;3.20;;
17422;SDS011;8829;47.932;7.810;2022-11-11T02:37:21;5.40;;;2.57;;
17422;SDS011;8829;47.932;7.810;2022-11-11T02:39:50;3.53;;;2.20;;
17422;SDS011;8829;47.932;7.810;2022-11-11T02:42:24;4.30;;;2.80;;
17422;SDS011;8829;47.932;7.810;2022-11-11T02:44:51;11.47;;;3.30;;
17422;SDS011;8829;47.932;7.810;2022-11-11T02:47:22;5.20;;;3.33;;
17422;SDS011;8829;47.932;7.810;2022-11-11T02:49:50;2.90;;;2.60;;
17422;SDS011;8829;47.932;7.810;2022-11-11T02:52:16;3.77;;;2.60;;
17422;SDS011;8829;47.932;7.810;2022-11-11T02:54:43;2.43;;;2.23;;
17422;SDS011;8829;47.932;7.810;2022-11-11T02:57:10;4.33;;;2.50;;
17422;SDS011;8829;47.932;7.810;2022-11-11T02:59:39;3.47;;;2.83;;
17422;SDS011;8829;47.932;7.810;2022-11-11T03:02:06;3.90;;;3.60;;
17422;SDS011;8829;47.932;7.810;2022-11-11T03:04:33;4.70;;;3.53;;
17422;SDS011;8829;47.932;7.810;2022-11-11T03:07:02;8.17;;;4.13;;
17422;SDS011;8829;47.932;7.810;2022-11-11T03:09:29;9.23;;;4.57;;
17422;SDS011;8829;47.932;7.810;2022-11-11T03:11:56;5.73;;;4.33;;
17422;SDS011;8829;47.932;7.810;2022-11-11T03:14:23;5.20;;;4.17;;
17422;SDS011;8829;47.932;7.810;2022-11-11T03:16:51;7.23;;;4.40;;
17422;SDS011;8829;47.932;7.810;2022-11-11T03:19:36;5.20;;;3.93;;
17422;SDS011;8829;47.932;7.810;2022-11-11T03:22:02;9.50;;;4.17;;
17422;SDS011;8829;47.932;7.810;2022-11-11T03:24:28;6.30;;;4.47;;
17422;SDS011;8829;47.932;7.810;2022-11-11T03:27:09;8.23;;;4.77;;
17422;SDS011;8829;47.932;7.810;2022-11-11T03:29:36;9.97;;;4.07;;
17422;SDS011;8829;47.932;7.810;2022-11-11T03:32:04;7.40;;;3.77;;
17422;SDS011;8829;47.932;7.810;2022-11-11T03:34:31;6.70;;;3.83;;
17422;SDS011;8829;47.932;7.810;2022-11-11T03:36:58;7.97;;;3.83;;
17422;SDS011;8829;47.932;7.810;2022-11-11T03:39:42;5.03;;;3.40;;
17422;SDS011;8829;47.932;7.810;2022-11-11T03:42:10;3.90;;;3.40;;
17422;SDS011;8829;47.932;7.810;2022-11-11T03:44:37;9.27;;;3.73;;
17422;SDS011;8829;47.932;7.810;2022-11-11T03:47:05;3.33;;;3.13;;
17422;SDS011;8829;47.932;7.810;2022-11-11T03:49:32;4.60;;;3.30;;
17422;SDS011;8829;47.932;7.810;2022-11-11T03:51:59;3.53;;;2.50;;
17422;SDS011;8829;47.932;7.810;2022-11-11T03:54:26;7.93;;;3.60;;
17422;SDS011;8829;47.932;7.810;2022-11-11T03:56:53;6.40;;;3.00;;
17422;SDS011;8829;47.932;7.810;2022-11-11T03:59:41;5.73;;;3.40;;
17422;SDS011;8829;47.932;7.810;2022-11-11T04:02:10;9.63;;;3.37;;
17422;SDS011;8829;47.932;7.810;2022-11-11T04:04:55;3.97;;;3.17;;
17422;SDS011;8829;47.932;7.810;2022-11-11T04:07:40;3.80;;;2.83;;
17422;SDS011;8829;47.932;7.810;2022-11-11T04:10:24;5.33;;;2.70;;
17422;SDS011;8829;47.932;7.810;2022-11-11T04:12:51;3.67;;;2.93;;
17422;SDS011;8829;47.932;7.810;2022-11-11T04:15:36;3.40;;;2.30;;
17422;SDS011;8829;47.932;7.810;2022-11-11T04:18:22;2.43;;;1.70;;
17422;SDS011;8829;47.932;7.810;2022-11-11T04:21:02;3.87;;;2.67;;
17422;SDS011;8829;47.932;7.810;2022-11-11T04:23:46;6.20;;;2.73;;
17422;SDS011;8829;47.932;7.810;2022-11-11T04:26:13;3.30;;;2.70;;
17422;SDS011;8829;47.932;7.810;2022-11-11T04:28:39;7.93;;;2.60;;
17422;SDS011;8829;47.932;7.810;2022-11-11T04:31:23;5.20;;;2.40;;
17422;SDS011;8829;47.932;7.810;2022-11-11T04:33:51;5.33;;;2.87;;
17422;SDS011;8829;47.932;7.810;2022-11-11T04:36:17;3.03;;;2.27;;
17422;SDS011;8829;47.932;7.810;2022-11-11T04:38:44;3.47;;;1.80;;
17422;SDS011;8829;47.932;7.810;2022-11-11T04:41:28;7.13;;;2.13;;
17422;SDS011;8829;47.932;7.810;2022-11-11T04:43:54;5.93;;;2.40;;
17422;SDS011;8829;47.932;7.810;2022-11-11T04:46:39;3.57;;;1.90;;
17422;SDS011;8829;47.932;7.810;2022-11-11T04:49:07;3.53;;;1.90;;
17422;SDS011;8829;47.932;7.810;2022-11-11T04:51:34;1.90;;;1.80;;
17422;SDS011;8829;47.932;7.810;2022-11-11T04:54:14;3.07;;;2.40;;
17422;SDS011;8829;47.932;7.810;2022-11-11T04:56:41;5.70;;;1.70;;
17422;SDS011;8829;47.932;7.810;2022-11-11T04:59:14;2.03;;;1.40;;
17422;SDS011;8829;47.932;7.810;2022-11-11T05:01:41;3.33;;;1.77;;
17422;SDS011;8829;47.932;7.810;2022-11-11T05:04:27;3.87;;;1.50;;
17422;SDS011;8829;47.932;7.810;2022-11-11T05:06:54;6.50;;;1.47;;
17422;SDS011;8829;47.932;7.810;2022-11-11T05:09:38;6.30;;;1.50;;
17422;SDS011;8829;47.932;7.810;2022-11-11T05:12:05;6.43;;;1.57;;
17422;SDS011;8829;47.932;7.810;2022-11-11T05:14:32;3.67;;;1.60;;
17422;SDS011;8829;47.932;7.810;2022-11-11T05:17:16;4.53;;;1.57;;
17422;SDS011;8829;47.932;7.810;2022-11-11T05:20:01;2.10;;;1.70;;
17422;SDS011;8829;47.932;7.810;2022-11-11T05:22:46;1.60;;;1.20;;
17422;SDS011;8829;47.932;7.810;2022-11-11T05:25:12;3.53;;;2.47;;
17422;SDS011;8829;47.932;7.810;2022-11-11T05:27:50;5.87;;;1.60;;
17422;SDS011;8829;47.932;7.810;2022-11-11T05:30:18;1.80;;;1.30;;
17422;SDS011;8829;47.932;7.810;2022-11-11T05:32:46;3.63;;;1.63;;
17422;SDS011;8829;47.932;7.810;2022-11-11T05:35:15;4.37;;;1.70;;
17422;SDS011;8829;47.932;7.810;2022-11-11T05:37:43;2.80;;;1.40;;
17422;SDS011;8829;47.932;7.810;2022-11-11T05:40:30;4.77;;;1.27;;
17422;SDS011;8829;47.932;7.810;2022-11-11T05:42:56;1.67;;;1.43;;
17422;SDS011;8829;47.932;7.810;2022-11-11T05:45:23;2.37;;;1.30;;
17422;SDS011;8829;47.932;7.810;2022-11-11T05:47:50;2.63;;;1.30;;
17422;SDS011;8829;47.932;7.810;2022-11-11T05:50:18;1.83;;;1.00;;
17422;SDS011;8829;47.932;7.810;2022-11-11T05:52:47;4.10;;;1.17;;
17422;SDS011;8829;47.932;7.810;2022-11-11T05:55:16;3.57;;;1.40;;
17422;SDS011;8829;47.932;7.810;2022-11-11T05:57:42;2.00;;;1.50;;
17422;SDS011;8829;47.932;7.810;2022-11-11T06:00:10;7.67;;;2.20;;
17422;SDS011;8829;47.932;7.810;2022-11-11T06:02:37;4.50;;;2.03;;
17422;SDS011;8829;47.932;7.810;2022-11-11T06:05:05;1.80;;;1.70;;
17422;SDS011;8829;47.932;7.810;2022-11-11T06:07:34;1.90;;;1.80;;
17422;SDS011;8829;47.932;7.810;2022-11-11T06:10:04;2.23;;;2.00;;
17422;SDS011;8829;47.932;7.810;2022-11-11T06:12:50;3.23;;;2.07;;
17422;SDS011;8829;47.932;7.810;2022-11-11T06:15:31;2.67;;;2.00;;
17422;SDS011;8829;47.932;7.810;2022-11-11T06:18:00;2.57;;;2.30;;
17422;SDS011;8829;47.932;7.810;2022-11-11T06:20:27;3.53;;;1.97;;
17422;SDS011;8829;47.932;7.810;2022-11-11T06:22:55;3.93;;;1.93;;
17422;SDS011;8829;47.932;7.810;2022-11-11T06:25:23;4.80;;;2.60;;
17422;SDS011;8829;47.932;7.810;2022-11-11T06:28:08;4.60;;;2.13;;
17422;SDS011;8829;47.932;7.810;2022-11-11T06:30:35;5.23;;;2.03;;
17422;SDS011;8829;47.932;7.810;2022-11-11T06:33:02;3.43;;;2.10;;
17422;SDS011;8829;47.932;7.810;2022-11-11T06:35:31;3.60;;;1.90;;
17422;SDS011;8829;47.932;7.810;2022-11-11T06:37:59;1.80;;;1.70;;
17422;SDS011;8829;47.932;7.810;2022-11-11T06:40:26;2.10;;;1.60;;
17422;SDS011;8829;47.932;7.810;2022-11-11T06:42:54;4.93;;;2.10;;
17422;SDS011;8829;47.932;7.810;2022-11-11T06:45:21;2.23;;;1.67;;
17422;SDS011;8829;47.932;7.810;2022-11-11T06:47:48;2.63;;;1.63;;
17422;SDS011;8829;47.932;7.810;2022-11-11T06:50:15;1.80;;;1.70;;
17422;SDS011;8829;47.932;7.810;2022-11-11T06:52:42;1.90;;;1.80;;
17422;SDS011;8829;47.932;7.810;2022-11-11T06:55:10;3.73;;;1.50;;
17422;SDS011;8829;47.932;7.810;2022-11-11T06:57:38;3.00;;;1.87;;
17422;SDS011;8829;47.932;7.810;2022-11-11T07:00:06;2.73;;;1.47;;
17422;SDS011;8829;47.932;7.810;2022-11-11T07:02:33;1.53;;;1.30;;
17422;SDS011;8829;47.932;7.810;2022-11-11T07:05:00;4.10;;;1.50;;
17422;SDS011;8829;47.932;7.810;2022-11-11T07:07:27;4.50;;;1.33;;
17422;SDS011;8829;47.932;7.810;2022-11-11T07:09:54;4.47;;;1.73;;
17422;SDS011;8829;47.932;7.810;2022-11-11T07:12:22;2.90;;;1.53;;
17422;SDS011;8829;47.932;7.810;2022-11-11T07:14:49;4.50;;;1.60;;
17422;SDS011;8829;47.932;7.810;2022-11-11T07:17:16;2.00;;;1.43;;
17422;SDS011;8829;47.932;7.810;2022-11-11T07:19:43;2.67;;;1.83;;
17422;SDS011;8829;47.932;7.810;2022-11-11T07:22:10;2.80;;;1.83;;
17422;SDS011;8829;47.932;7.810;2022-11-11T07:24:37;3.60;;;2.50;;
17422;SDS011;8829;47.932;7.810;2022-11-11T07:27:03;6.13;;;2.80;;
17422;SDS011;8829;47.932;7.810;2022-11-11T07:29:31;2.97;;;2.43;;
17422;SDS011;8829;47.932;7.810;2022-11-11T07:31:59;3.17;;;2.10;;
17422;SDS011;8829;47.932;7.810;2022-11-11T07:34:26;4.63;;;2.97;;
17422;SDS011;8829;47.932;7.810;2022-11-11T07:36:54;5.07;;;2.80;;
17422;SDS011;8829;47.932;7.810;2022-11-11T07:39:21;5.87;;;4.00;;
17422;SDS011;8829;47.932;7.810;2022-11-11T07:41:48;3.00;;;2.70;;
17422;SDS011;8829;47.932;7.810;2022-11-11T07:44:15;2.37;;;2.20;;
17422;SDS011;8829;47.932;7.810;2022-11-11T07:46:44;3.97;;;2.30;;
17422;SDS011;8829;47.932;7.810;2022-11-11T07:49:10;2.30;;;1.83;;
17422;SDS011;8829;47.932;7.810;2022-11-11T07:51:37;1.73;;;1.60;;
17422;SDS011;8829;47.932;7.810;2022-11-11T07:54:04;3.67;;;1.90;;
17422;SDS011;8829;47.932;7.810;2022-11-11T07:56:31;3.80;;;1.83;;
17422;SDS011;8829;47.932;7.810;2022-11-11T07:58:57;1.80;;;1.63;;
17422;SDS011;8829;47.932;7.810;2022-11-11T08:01:24;3.60;;;1.43;;
17422;SDS011;8829;47.932;7.810;2022-11-11T08:03:52;2.63;;;2.00;;
17422;SDS011;8829;47.932;7.810;2022-11-11T08:06:20;2.13;;;2.03;;
17422;SDS011;8829;47.932;7.810;2022-11-11T08:08:48;1.90;;;1.70;;
17422;SDS011;8829;47.932;7.810;2022-11-11T08:11:15;2.77;;;2.43;;
17422;SDS011;8829;47.932;7.810;2022-11-11T08:14:02;2.30;;;2.10;;
17422;SDS011;8829;47.932;7.810;2022-11-11T08:16:28;6.87;;;3.07;;
17422;SDS011;8829;47.932;7.810;2022-11-11T08:18:57;3.33;;;3.03;;
17422;SDS011;8829;47.932;7.810;2022-11-11T08:21:24;5.33;;;2.60;;
17422;SDS011;8829;47.932;7.810;2022-11-11T08:23:51;2.90;;;2.43;;
17422;SDS011;8829;47.932;7.810;2022-11-11T08:26:19;3.20;;;2.00;;
17422;SDS011;8829;47.932;7.810;2022-11-11T08:28:47;1.57;;;1.47;;
17422;SDS011;8829;47.932;7.810;2022-11-11T08:31:14;1.63;;;1.53;;
17422;SDS011;8829;47.932;7.810;2022-11-11T08:33:41;4.73;;;1.60;;
17422;SDS011;8829;47.932;7.810;2022-11-11T08:36:09;1.43;;;1.30;;
17422;SDS011;8829;47.932;7.810;2022-11-11T08:38:37;2.90;;;1.50;;
17422;SDS011;8829;47.932;7.810;2022-11-11T08:41:05;1.60;;;1.50;;
17422;SDS011;8829;47.932;7.810;2022-11-11T08:43:32;2.40;;;1.70;;
17422;SDS011;8829;47.932;7.810;2022-11-11T08:46:00;1.37;;;1.30;;
17422;SDS011;8829;47.932;7.810;2022-11-11T08:48:28;3.00;;;1.87;;
17422;SDS011;8829;47.932;7.810;2022-11-11T08:50:55;2.57;;;2.33;;
17422;SDS011;8829;47.932;7.810;2022-11-11T08:53:24;2.90;;;2.60;;
17422;SDS011;8829;47.932;7.810;2022-11-11T08:55:51;3.13;;;2.87;;
17422;SDS011;8829;47.932;7.810;2022-11-11T08:58:20;2.83;;;2.63;;
17422;SDS011;8829;47.932;7.810;2022-11-11T09:00:46;4.50;;;2.40;;
17422;SDS011;8829;47.932;7.810;2022-11-11T09:03:13;4.63;;;2.80;;
17422;SDS011;8829;47.932;7.810;2022-11-11T09:05:40;3.80;;;2.70;;
17422;SDS011;8829;47.932;7.810;2022-11-11T09:08:08;4.23;;;3.10;;
17422;SDS011;8829;47.932;7.810;2022-11-11T09:10:37;4.63;;;3.13;;
17422;SDS011;8829;47.932;7.810;2022-11-11T09:13:04;5.87;;;3.60;;
17422;SDS011;8829;47.932;7.810;2022-11-11T09:15:32;3.20;;;2.90;;
17422;SDS011;8829;47.932;7.810;2022-11-11T09:17:59;8.00;;;3.20;;
17422;SDS011;8829;47.932;7.810;2022-11-11T09:20:27;3.97;;;3.17;;
17422;SDS011;8829;47.932;7.810;2022-11-11T09:22:54;2.90;;;2.60;;
17422;SDS011;8829;47.932;7.810;2022-11-11T09:25:22;3.33;;;2.60;;
17422;SDS011;8829;47.932;7.810;2022-11-11T09:27:54;4.50;;;2.63;;
17422;SDS011;8829;47.932;7.810;2022-11-11T09:30:22;2.63;;;2.43;;
17422;SDS011;8829;47.932;7.810;2022-11-11T09:32:50;3.93;;;2.80;;
17422;SDS011;8829;47.932;7.810;2022-11-11T09:35:16;3.37;;;3.07;;
17422;SDS011;8829;47.932;7.810;2022-11-11T09:37:54;3.60;;;2.80;;
17422;SDS011;8829;47.932;7.810;2022-11-11T09:40:21;3.37;;;3.10;;
17422;SDS011;8829;47.932;7.810;2022-11-11T09:43:02;3.20;;;3.00;;
17422;SDS011;8829;47.932;7.810;2022-11-11T09:45:40;3.87;;;2.90;;
17422;SDS011;8829;47.932;7.810;2022-11-11T09:48:22;4.70;;;3.00;;
17422;SDS011;8829;47.932;7.810;2022-11-11T09:50:57;4.97;;;3.13;;
17422;SDS011;8829;47.932;7.810;2022-11-11T09:53:27;4.73;;;3.00;;
17422;SDS011;8829;47.932;7.810;2022-11-11T09:55:59;4.47;;;3.20;;
17422;SDS011;8829;47.932;7.810;2022-11-11T09:58:33;6.77;;;3.43;;
17422;SDS011;8829;47.932;7.810;2022-11-11T10:01:06;5.30;;;3.23;;
17422;SDS011;8829;47.932;7.810;2022-11-11T10:03:38;4.67;;;3.07;;
17422;SDS011;8829;47.932;7.810;2022-11-11T10:06:09;3.60;;;3.00;;
17422;SDS011;8829;47.932;7.810;2022-11-11T10:08:43;4.80;;;3.00;;
17422;SDS011;8829;47.932;7.810;2022-11-11T10:11:15;3.17;;;2.97;;
17422;SDS011;8829;47.932;7.810;2022-11-11T10:13:48;4.17;;;3.10;;
17422;SDS011;8829;47.932;7.810;2022-11-11T10:16:17;5.53;;;3.07;;
17422;SDS011;8829;47.932;7.810;2022-11-11T10:19:01;3.97;;;3.13;;
17422;SDS011;8829;47.932;7.810;2022-11-11T10:21:40;6.27;;;3.00;;
17422;SDS011;8829;47.932;7.810;2022-11-11T10:24:12;6.97;;;3.03;;
17422;SDS011;8829;47.932;7.810;2022-11-11T10:26:42;2.90;;;2.67;;
17422;SDS011;8829;47.932;7.810;2022-11-11T10:29:13;6.20;;;2.90;;
17422;SDS011;8829;47.932;7.810;2022-11-11T10:31:43;4.53;;;3.00;;
17422;SDS011;8829;47.932;7.810;2022-11-11T10:34:15;3.00;;;2.80;;
17422;SDS011;8829;47.932;7.810;2022-11-11T10:36:46;2.90;;;2.70;;
17422;SDS011;8829;47.932;7.810;2022-11-11T10:39:17;3.43;;;2.77;;
17422;SDS011;8829;47.932;7.810;2022-11-11T10:41:51;2.30;;;2.20;;
17422;SDS011;8829;47.932;7.810;2022-11-11T10:44:19;2.73;;;2.43;;
17422;SDS011;8829;47.932;7.810;2022-11-11T10:46:53;3.57;;;2.63;;
17422;SDS011;8829;47.932;7.810;2022-11-11T10:49:28;4.60;;;2.63;;
17422;SDS011;8829;47.932;7.810;2022-11-11T10:51:59;2.53;;;2.20;;
17422;SDS011;8829;47.932;7.810;2022-11-11T10:54:32;2.17;;;2.03;;
17422;SDS011;8829;47.932;7.810;2022-11-11T10:57:04;1.83;;;1.70;;
17422;SDS011;8829;47.932;7.810;2022-11-11T10:59:38;3.27;;;1.70;;
17422;SDS011;8829;47.932;7.810;2022-11-11T11:02:12;3.13;;;1.90;;
17422;SDS011;8829;47.932;7.810;2022-11-11T11:04:44;2.90;;;2.00;;
17422;SDS011;8829;47.932;7.810;2022-11-11T11:07:18;3.63;;;2.07;;
17422;SDS011;8829;47.932;7.810;2022-11-11T11:09:49;3.87;;;1.60;;
17422;SDS011;8829;47.932;7.810;2022-11-11T11:12:23;2.63;;;1.60;;
17422;SDS011;8829;47.932;7.810;2022-11-11T11:14:59;2.67;;;1.70;;
17422;SDS011;8829;47.932;7.810;2022-11-11T11:17:34;3.73;;;1.90;;
17422;SDS011;8829;47.932;7.810;2022-11-11T11:20:06;4.60;;;2.50;;
17422;SDS011;8829;47.932;7.810;2022-11-11T11:22:45;2.50;;;1.97;;
17422;SDS011;8829;47.932;7.810;2022-11-11T11:25:14;1.63;;;1.50;;
17422;SDS011;8829;47.932;7.810;2022-11-11T11:27:44;3.67;;;2.00;;
17422;SDS011;8829;47.932;7.810;2022-11-11T11:30:14;1.53;;;1.40;;
17422;SDS011;8829;47.932;7.810;2022-11-11T11:32:54;1.73;;;1.63;;
17422;SDS011;8829;47.932;7.810;2022-11-11T11:35:30;1.57;;;1.23;;
17422;SDS011;8829;47.932;7.810;2022-11-11T11:37:58;3.07;;;1.50;;
17422;SDS011;8829;47.932;7.810;2022-11-11T11:40:25;2.63;;;1.27;;
17422;SDS011;8829;47.932;7.810;2022-11-11T11:42:54;3.90;;;1.53;;
17422;SDS011;8829;47.932;7.810;2022-11-11T11:45:23;2.70;;;1.60;;
17422;SDS011;8829;47.932;7.810;2022-11-11T11:47:59;2.30;;;1.97;;
17422;SDS011;8829;47.932;7.810;2022-11-11T11:50:36;3.07;;;1.43;;
17422;SDS011;8829;47.932;7.810;2022-11-11T11:53:19;6.10;;;1.90;;
17422;SDS011;8829;47.932;7.810;2022-11-11T11:55:55;2.17;;;1.30;;
17422;SDS011;8829;47.932;7.810;2022-11-11T11:58:32;1.23;;;1.17;;
17422;SDS011;8829;47.932;7.810;2022-11-11T12:01:09;1.50;;;1.30;;
17422;SDS011;8829;47.932;7.810;2022-11-11T12:03:49;1.40;;;1.13;;
17422;SDS011;8829;47.932;7.810;2022-11-11T12:06:33;1.63;;;1.30;;
17422;SDS011;8829;47.932;7.810;2022-11-11T12:09:12;5.03;;;3.80;;
17422;SDS011;8829;47.932;7.810;2022-11-11T12:11:50;5.77;;;1.60;;
17422;SDS011;8829;47.932;7.810;2022-11-11T12:14:34;2.77;;;1.50;;
17422;SDS011;8829;47.932;7.810;2022-11-11T12:17:13;2.73;;;1.50;;
17422;SDS011;8829;47.932;7.810;2022-11-11T12:19:55;2.00;;;1.20;;
17422;SDS011;8829;47.932;7.810;2022-11-11T12:22:35;2.80;;;1.47;;
17422;SDS011;8829;47.932;7.810;2022-11-11T12:25:11;1.33;;;1.23;;
17422;SDS011;8829;47.932;7.810;2022-11-11T12:27:47;1.50;;;1.40;;
17422;SDS011;8829;47.932;7.810;2022-11-11T12:30:22;3.00;;;1.83;;
17422;SDS011;8829;47.932;7.810;2022-11-11T12:33:01;2.07;;;1.60;;
17422;SDS011;8829;47.932;7.810;2022-11-11T12:35:57;1.77;;;1.57;;
17422;SDS011;8829;47.932;7.810;2022-11-11T12:38:42;1.87;;;1.60;;
17422;SDS011;8829;47.932;7.810;2022-11-11T12:41:24;3.77;;;2.60;;
17422;SDS011;8829;47.932;7.810;2022-11-11T12:43:55;3.03;;;2.30;;
17422;SDS011;8829;47.932;7.810;2022-11-11T12:46:31;2.47;;;1.67;;
17422;SDS011;8829;47.932;7.810;2022-11-11T12:49:09;2.57;;;2.20;;
17422;SDS011;8829;47.932;7.810;2022-11-11T12:52:11;2.40;;;2.20;;
17422;SDS011;8829;47.932;7.810;2022-11-11T12:54:53;3.93;;;2.50;;
17422;SDS011;8829;47.932;7.810;2022-11-11T12:57:28;3.13;;;2.83;;
17422;SDS011;8829;47.932;7.810;2022-11-11T13:00:04;4.60;;;2.60;;
17422;SDS011;8829;47.932;7.810;2022-11-11T13:02:37;3.50;;;3.10;;
17422;SDS011;8829;47.932;7.810;2022-11-11T13:05:21;3.30;;;2.70;;
17422;SDS011;8829;47.932;7.810;2022-11-11T13:08:05;4.17;;;2.83;;
17422;SDS011;8829;47.932;7.810;2022-11-11T13:10:50;3.93;;;3.00;;
17422;SDS011;8829;47.932;7.810;2022-11-11T13:13:28;3.80;;;3.00;;
17422;SDS011;8829;47.932;7.810;2022-11-11T13:16:06;3.13;;;2.77;;
17422;SDS011;8829;47.932;7.810;2022-11-11T13:18:37;3.73;;;3.40;;
17422;SDS011;8829;47.932;7.810;2022-11-11T13:21:12;3.70;;;3.43;;
17422;SDS011;8829;47.932;7.810;2022-11-11T13:23:41;3.20;;;2.90;;
17422;SDS011;8829;47.932;7.810;2022-11-11T13:26:13;6.43;;;3.17;;
17422;SDS011;8829;47.932;7.810;2022-11-11T13:28:49;5.43;;;3.13;;
17422;SDS011;8829;47.932;7.810;2022-11-11T13:31:32;6.03;;;2.80;;
17422;SDS011;8829;47.932;7.810;2022-11-11T13:34:02;2.67;;;2.47;;
17422;SDS011;8829;47.932;7.810;2022-11-11T13:36:40;3.03;;;2.83;;
17422;SDS011;8829;47.932;7.810;2022-11-11T13:39:18;3.43;;;3.13;;
17422;SDS011;8829;47.932;7.810;2022-11-11T13:41:51;4.07;;;3.23;;
17422;SDS011;8829;47.932;7.810;2022-11-11T13:44:22;4.37;;;3.00;;
17422;SDS011;8829;47.932;7.810;2022-11-11T13:46:57;5.93;;;2.67;;
17422;SDS011;8829;47.932;7.810;2022-11-11T13:49:28;4.93;;;2.77;;
17422;SDS011;8829;47.932;7.810;2022-11-11T13:52:01;4.10;;;3.33;;
17422;SDS011;8829;47.932;7.810;2022-11-11T13:54:30;4.60;;;3.73;;
17422;SDS011;8829;47.932;7.810;2022-11-11T13:57:04;5.83;;;3.30;;
17422;SDS011;8829;47.932;7.810;2022-11-11T13:59:35;4.27;;;2.93;;
17422;SDS011;8829;47.932;7.810;2022-11-11T14:02:13;3.17;;;2.87;;
17422;SDS011;8829;47.932;7.810;2022-11-11T14:07:48;3.90;;;2.67;;
17422;SDS011;8829;47.932;7.810;2022-11-11T14:16:03;3.17;;;2.60;;
17422;SDS011;8829;47.932;7.810;2022-11-11T14:18:35;5.47;;;2.63;;
17422;SDS011;8829;47.932;7.810;2022-11-11T14:21:06;3.17;;;2.40;;
17422;SDS011;8829;47.932;7.810;2022-11-11T14:23:37;2.83;;;2.60;;
17422;SDS011;8829;47.932;7.810;2022-11-11T14:26:21;4.17;;;2.37;;
17422;SDS011;8829;47.932;7.810;2022-11-11T14:28:54;2.87;;;2.30;;
17422;SDS011;8829;47.932;7.810;2022-11-11T14:31:46;3.57;;;2.13;;
17422;SDS011;8829;47.932;7.810;2022-11-11T14:34:27;2.53;;;2.30;;
17422;SDS011;8829;47.932;7.810;2022-11-11T14:37:08;2.93;;;2.60;;
17422;SDS011;8829;47.932;7.810;2022-11-11T14:39:49;3.07;;;2.80;;
17422;SDS011;8829;47.932;7.810;2022-11-11T14:51:37;3.63;;;2.60;;
17422;SDS011;8829;47.932;7.810;2022-11-11T14:54:15;4.20;;;2.37;;
17422;SDS011;8829;47.932;7.810;2022-11-11T14:56:56;5.07;;;3.10;;
17422;SDS011;8829;47.932;7.810;2022-11-11T14:59:26;2.47;;;2.37;;
17422;SDS011;8829;47.932;7.810;2022-11-11T15:01:55;5.13;;;3.00;;
17422;SDS011;8829;47.932;7.810;2022-11-11T15:04:24;4.73;;;2.70;;
17422;SDS011;8829;47.932;7.810;2022-11-11T15:06:52;4.67;;;3.00;;
17422;SDS011;8829;47.932;7.810;2022-11-11T15:12:15;3.53;;;3.10;;
17422;SDS011;8829;47.932;7.810;2022-11-11T15:14:53;3.70;;;3.07;;
17422;SDS011;8829;47.932;7.810;2022-11-11T15:17:27;4.07;;;3.23;;
17422;SDS011;8829;47.932;7.810;2022-11-11T15:20:09;5.07;;;3.13;;
17422;SDS011;8829;47.932;7.810;2022-11-11T15:22:53;4.97;;;3.70;;
17422;SDS011;8829;47.932;7.810;2022-11-11T15:25:29;3.27;;;2.97;;
17422;SDS011;8829;47.932;7.810;2022-11-11T15:28:13;2.97;;;2.77;;
17422;SDS011;8829;47.932;7.810;2022-11-11T15:31:02;4.00;;;2.80;;
17422;SDS011;8829;47.932;7.810;2022-11-11T15:33:41;4.83;;;2.60;;
17422;SDS011;8829;47.932;7.810;2022-11-11T15:36:12;3.50;;;2.53;;
17422;SDS011;8829;47.932;7.810;2022-11-11T15:38:44;3.03;;;2.73;;
17422;SDS011;8829;47.932;7.810;2022-11-11T15:41:20;4.10;;;2.70;;
17422;SDS011;8829;47.932;7.810;2022-11-11T15:43:50;4.27;;;3.30;;
17422;SDS011;8829;47.932;7.810;2022-11-11T15:46:20;4.07;;;2.80;;
17422;SDS011;8829;47.932;7.810;2022-11-11T15:48:52;3.17;;;2.60;;
17422;SDS011;8829;47.932;7.810;2022-11-11T15:51:25;3.90;;;3.10;;